Time;durP1;ratioP1;P1;durP2;ratioP2;P2;SDS_P1;SDS_P2;PMS_P1;PMS_P2;Temp;Humidity;BMP_temperature;BMP_pressure;BME280_temperature;BME280_humidity;BME280_pressure;Samples;Min_cycle;Max_cycle;Signal;HPM_P1;HPM_P2
2023/03/20 00:01:17;;;;;;;3.00;2.80;;;9.00;99.90;;;;;;5039015;28;20483;-71
2023/03/20 00:03:43;;;;;;;4.10;3.80;;;9.00;99.90;;;;;;5034045;28;20448;-72
2023/03/20 00:06:16;;;;;;;4.47;4.03;;;9.00;99.90;;;;;;5034777;28;20734;-72
2023/03/20 00:08:44;;;;;;;5.03;4.60;;;9.00;99.90;;;;;;5023790;28;20278;-71
2023/03/20 00:11:32;;;;;;;5.50;5.00;;;9.00;99.90;;;;;;5032006;28;20451;-71
2023/03/20 00:14:02;;;;;;;8.47;5.57;;;8.90;99.90;;;;;;5035962;28;20469;-71
2023/03/20 00:16:36;;;;;;;5.97;5.47;;;8.90;99.90;;;;;;5042563;28;20507;-72
2023/03/20 00:19:03;;;;;;;6.07;5.50;;;8.90;99.90;;;;;;5039062;28;20424;-71
2023/03/20 00:21:29;;;;;;;6.47;5.97;;;8.90;99.90;;;;;;5037627;28;20451;-71
2023/03/20 00:23:55;;;;;;;8.07;4.87;;;8.90;99.90;;;;;;5039610;28;20434;-71
2023/03/20 00:26:30;;;;;;;5.73;5.23;;;8.90;99.90;;;;;;5030463;28;20430;-71
2023/03/20 00:28:56;;;;;;;7.03;6.33;;;8.90;99.90;;;;;;5028988;28;20777;-71
2023/03/20 00:31:34;;;;;;;4.83;4.40;;;8.90;99.90;;;;;;5034971;28;20456;-71
2023/03/20 00:34:02;;;;;;;6.07;5.47;;;8.90;99.90;;;;;;5028947;28;20460;-71
2023/03/20 00:36:28;;;;;;;6.77;6.07;;;8.90;99.90;;;;;;5030401;28;20436;-72
2023/03/20 00:38:56;;;;;;;5.43;4.93;;;8.90;99.90;;;;;;5031008;28;20436;-72
2023/03/20 00:41:31;;;;;;;8.00;5.70;;;8.90;99.90;;;;;;5030599;28;20224;-71
2023/03/20 00:44:01;;;;;;;7.23;6.10;;;8.90;99.90;;;;;;5030569;28;20428;-71
2023/03/20 00:46:28;;;;;;;6.70;6.10;;;8.90;99.90;;;;;;5030777;28;20519;-72
2023/03/20 00:48:54;;;;;;;5.80;5.40;;;8.90;99.90;;;;;;5030785;28;20527;-72
2023/03/20 00:51:20;;;;;;;7.47;5.77;;;8.90;99.90;;;;;;5030525;28;20784;-71
2023/03/20 00:53:45;;;;;;;6.07;4.90;;;8.90;99.90;;;;;;5030273;28;20520;-71
2023/03/20 00:56:37;;;;;;;4.57;4.27;;;8.80;99.90;;;;;;5030873;28;20182;-72
2023/03/20 00:59:03;;;;;;;5.87;5.40;;;8.80;99.90;;;;;;5026244;28;20174;-71
2023/03/20 01:01:30;;;;;;;9.13;5.73;;;8.80;99.90;;;;;;5032500;28;20439;-72
2023/03/20 01:03:57;;;;;;;6.13;5.60;;;8.80;99.90;;;;;;5034237;28;20384;-72
2023/03/20 01:06:23;;;;;;;6.90;5.90;;;8.80;99.90;;;;;;5034282;28;20825;-72
2023/03/20 01:08:48;;;;;;;6.23;5.63;;;8.80;99.90;;;;;;5034284;28;20432;-72
2023/03/20 01:11:18;;;;;;;8.30;5.20;;;8.80;99.90;;;;;;5034093;28;20295;-72
2023/03/20 01:13:44;;;;;;;6.43;5.93;;;8.80;99.90;;;;;;5033720;28;20378;-72
2023/03/20 01:16:20;;;;;;;7.37;6.03;;;8.80;99.90;;;;;;5033224;28;20996;-72
2023/03/20 01:18:46;;;;;;;6.97;6.27;;;8.80;99.90;;;;;;5034252;28;20322;-71
2023/03/20 01:21:11;;;;;;;6.83;6.00;;;8.80;99.90;;;;;;5034252;28;21015;-72
2023/03/20 01:23:37;;;;;;;6.00;5.50;;;8.80;99.90;;;;;;5033761;28;20646;-72
2023/03/20 01:26:03;;;;;;;6.90;5.67;;;8.80;99.90;;;;;;5034394;28;20185;-72
2023/03/20 01:28:30;;;;;;;5.87;5.37;;;8.80;99.90;;;;;;5032764;28;20216;-72
2023/03/20 01:30:55;;;;;;;5.20;4.83;;;8.80;99.90;;;;;;5034272;28;20209;-70
2023/03/20 01:33:22;;;;;;;7.47;6.70;;;8.80;99.90;;;;;;5033622;28;20461;-71
2023/03/20 01:35:49;;;;;;;6.87;6.13;;;8.80;99.90;;;;;;5034064;28;20181;-71
2023/03/20 01:38:21;;;;;;;6.03;5.20;;;8.70;99.90;;;;;;5034047;28;20412;-71
2023/03/20 01:40:47;;;;;;;6.07;5.57;;;8.70;99.90;;;;;;5032474;28;20478;-72
2023/03/20 01:43:16;;;;;;;6.17;5.73;;;8.70;99.90;;;;;;5033481;28;20535;-71
2023/03/20 01:46:09;;;;;;;8.60;5.40;;;8.70;99.90;;;;;;5025828;28;21000;-71
2023/03/20 01:48:59;;;;;;;7.00;6.03;;;8.70;99.90;;;;;;5033316;28;20866;-71
2023/03/20 01:51:31;;;;;;;5.30;4.90;;;8.70;99.90;;;;;;5033360;28;20963;-73
2023/03/20 01:54:06;;;;;;;4.30;4.00;;;8.70;99.90;;;;;;5033335;28;20493;-71
2023/03/20 01:56:37;;;;;;;4.20;3.90;;;8.70;99.90;;;;;;5033353;28;20763;-71
2023/03/20 01:59:15;;;;;;;3.50;3.20;;;8.70;99.90;;;;;;5033569;28;20474;-71
2023/03/20 03:32:34;;;;;;;0.70;0.70;;;8.50;99.90;;;;;;5175091;23;20488;-71
2023/03/20 03:35:01;;;;;;;1.60;0.70;;;8.50;99.90;;;;;;5009622;28;20479;-72
2023/03/20 03:37:52;;;;;;;0.70;0.70;;;8.50;99.90;;;;;;5010722;28;20430;-72
2023/03/20 03:40:54;;;;;;;0.97;0.53;;;8.50;99.90;;;;;;5009791;28;20432;-71
2023/03/20 03:44:07;;;;;;;0.70;0.70;;;8.50;99.90;;;;;;4969812;28;20434;-74
2023/03/20 03:47:05;;;;;;;0.80;0.80;;;8.40;99.90;;;;;;4951985;28;20483;-72
2023/03/20 03:49:36;;;;;;;0.67;0.67;;;8.40;99.90;;;;;;4991356;28;20473;-73
2023/03/20 03:52:07;;;;;;;0.93;0.60;;;8.50;99.90;;;;;;4991672;28;20999;-72
2023/03/20 03:54:44;;;;;;;2.07;0.80;;;8.40;99.90;;;;;;4991793;28;20482;-73
2023/03/20 03:57:13;;;;;;;0.70;0.70;;;8.40;99.90;;;;;;4991020;28;20421;-72
2023/03/20 03:59:43;;;;;;;0.80;0.80;;;8.40;99.90;;;;;;4991564;28;20429;-72
2023/03/20 04:02:09;;;;;;;1.20;0.90;;;8.40;99.90;;;;;;4990830;28;20462;-71
2023/03/20 04:04:41;;;;;;;1.20;1.10;;;8.50;99.90;;;;;;4991437;28;20425;-72
2023/03/20 04:07:06;;;;;;;0.70;0.70;;;8.50;99.90;;;;;;4991605;28;21023;-72
2023/03/20 04:09:32;;;;;;;2.60;0.90;;;8.40;99.90;;;;;;4991589;28;20513;-72
2023/03/20 04:11:58;;;;;;;1.13;1.13;;;8.40;99.90;;;;;;4991530;28;20207;-72
2023/03/20 04:14:23;;;;;;;1.03;0.70;;;8.40;99.90;;;;;;4991365;28;20212;-71
2023/03/20 04:16:49;;;;;;;0.90;0.80;;;8.40;99.90;;;;;;4991978;28;20710;-72
2023/03/20 04:19:15;;;;;;;2.30;1.27;;;8.40;99.90;;;;;;4991560;28;20275;-73
2023/03/20 04:21:40;;;;;;;0.90;0.90;;;8.30;99.90;;;;;;4990977;28;20215;-72
2023/03/20 04:24:06;;;;;;;1.10;1.07;;;8.40;99.90;;;;;;4991317;28;20203;-72
2023/03/20 04:26:31;;;;;;;0.90;0.90;;;8.40;99.90;;;;;;4991049;28;20212;-73
2023/03/20 04:28:57;;;;;;;1.20;0.80;;;8.40;99.90;;;;;;4991295;28;20199;-72
2023/03/20 04:31:23;;;;;;;0.80;0.80;;;8.40;99.90;;;;;;4991281;28;20240;-72
2023/03/20 04:33:48;;;;;;;1.30;1.20;;;8.40;99.90;;;;;;4989629;28;20236;-71
2023/03/20 04:36:14;;;;;;;1.10;1.10;;;8.40;99.90;;;;;;4994777;28;20521;-73
2023/03/20 04:38:40;;;;;;;1.27;1.17;;;8.40;99.90;;;;;;4995155;28;20190;-72
2023/03/20 04:41:06;;;;;;;2.70;1.20;;;8.30;99.90;;;;;;4993966;28;20572;-73
2023/03/20 04:43:32;;;;;;;2.97;1.10;;;8.30;99.90;;;;;;4994673;28;20190;-73
2023/03/20 04:45:57;;;;;;;0.87;0.87;;;8.30;99.90;;;;;;4994966;28;20445;-73
2023/03/20 04:48:23;;;;;;;0.80;0.80;;;8.30;99.90;;;;;;4995028;28;20234;-72
2023/03/20 04:50:49;;;;;;;2.60;1.23;;;8.30;99.90;;;;;;4993746;28;20206;-72
2023/03/20 04:53:16;;;;;;;0.83;0.83;;;8.40;99.90;;;;;;4994778;28;20571;-70
2023/03/20 04:55:42;;;;;;;0.70;0.70;;;8.40;99.90;;;;;;4994848;28;20529;-72
2023/03/20 04:58:08;;;;;;;1.03;0.70;;;8.30;99.90;;;;;;4994620;28;20440;-72
2023/03/20 05:00:34;;;;;;;1.63;0.80;;;8.30;99.90;;;;;;4994724;28;20516;-71
2023/03/20 05:03:00;;;;;;;3.47;1.83;;;8.30;99.90;;;;;;4994468;28;20270;-71
2023/03/20 05:05:25;;;;;;;5.13;2.50;;;8.30;99.90;;;;;;4994865;28;20759;-71
2023/03/20 05:07:51;;;;;;;3.00;2.80;;;8.30;99.90;;;;;;4986567;28;20520;-74
2023/03/20 05:10:17;;;;;;;1.53;1.20;;;8.30;99.90;;;;;;4995025;28;20194;-71
2023/03/20 05:12:44;;;;;;;1.00;0.90;;;8.30;99.90;;;;;;4993894;28;20194;-71
2023/03/20 05:15:10;;;;;;;0.80;0.67;;;8.40;99.90;;;;;;4994474;28;20434;-71
2023/03/20 05:17:35;;;;;;;1.80;0.93;;;8.40;99.90;;;;;;4992950;28;20452;-72
2023/03/20 05:20:01;;;;;;;1.67;1.57;;;8.40;99.90;;;;;;4994413;28;20440;-72
2023/03/20 05:22:26;;;;;;;2.17;1.17;;;8.40;99.90;;;;;;4994042;28;20207;-71
2023/03/20 05:24:52;;;;;;;1.20;1.20;;;8.30;99.90;;;;;;4994283;28;20195;-70
2023/03/20 05:27:18;;;;;;;1.87;1.77;;;8.30;99.90;;;;;;4994366;28;20203;-71
2023/03/20 05:29:43;;;;;;;1.70;1.60;;;8.30;99.90;;;;;;4994065;28;20784;-70
2023/03/20 05:32:09;;;;;;;1.27;1.23;;;8.40;99.90;;;;;;4993690;28;20216;-70
2023/03/20 05:34:34;;;;;;;0.70;0.70;;;8.30;99.90;;;;;;4994087;28;20211;-70
2023/03/20 05:37:00;;;;;;;0.90;0.90;;;8.30;99.90;;;;;;4994075;28;20307;-71
2023/03/20 05:39:25;;;;;;;1.00;0.80;;;8.20;99.90;;;;;;4992932;28;20662;-71
2023/03/20 05:41:51;;;;;;;1.20;1.10;;;8.20;99.90;;;;;;4993675;28;21037;-71
2023/03/20 05:44:16;;;;;;;1.53;1.47;;;8.20;99.90;;;;;;4993939;28;20653;-70
2023/03/20 05:46:42;;;;;;;2.10;2.00;;;8.30;99.90;;;;;;4993217;28;20233;-71
2023/03/20 05:49:08;;;;;;;3.10;1.30;;;8.30;99.90;;;;;;4994154;28;20596;-71
2023/03/20 05:51:33;;;;;;;1.30;1.20;;;8.40;99.90;;;;;;4993727;28;20238;-71
2023/03/20 05:53:59;;;;;;;2.37;1.03;;;8.40;99.90;;;;;;4993701;28;20218;-71
2023/03/20 05:56:25;;;;;;;1.30;1.07;;;8.40;99.90;;;;;;4994140;28;20221;-71
2023/03/20 05:58:50;;;;;;;1.37;1.20;;;8.40;99.90;;;;;;4993552;28;20194;-71
2023/03/20 06:01:20;;;;;;;1.27;0.90;;;8.40;99.90;;;;;;4993945;28;20220;-72
2023/03/20 06:03:46;;;;;;;2.00;1.10;;;8.40;99.90;;;;;;4993563;28;21037;-72
2023/03/20 06:06:12;;;;;;;1.10;1.00;;;8.40;99.90;;;;;;4993920;28;20471;-72
2023/03/20 06:08:37;;;;;;;1.33;1.23;;;8.50;99.90;;;;;;4993658;28;20543;-71
2023/03/20 06:11:03;;;;;;;1.30;1.20;;;8.50;99.90;;;;;;4993644;28;20286;-71
2023/03/20 06:13:29;;;;;;;0.77;0.77;;;8.50;99.90;;;;;;4991764;28;20244;-71
2023/03/20 06:15:55;;;;;;;1.40;1.30;;;8.60;99.90;;;;;;4992953;28;20237;-71
2023/03/20 06:18:20;;;;;;;0.70;0.70;;;8.60;99.90;;;;;;4993029;28;20187;-70
2023/03/20 06:20:51;;;;;;;1.13;0.90;;;8.70;99.90;;;;;;4992386;28;20731;-71
2023/03/20 06:23:17;;;;;;;1.20;1.10;;;8.60;99.90;;;;;;4991723;28;20198;-69
2023/03/20 06:25:42;;;;;;;1.30;0.70;;;8.70;99.90;;;;;;4991625;28;20449;-71
2023/03/20 06:28:08;;;;;;;2.50;0.80;;;8.70;99.90;;;;;;4987122;28;20724;-72
2023/03/20 06:30:33;;;;;;;1.33;1.13;;;8.70;99.90;;;;;;4988795;28;20316;-71
2023/03/20 06:32:59;;;;;;;1.03;1.00;;;8.80;99.90;;;;;;4992704;28;20245;-71
2023/03/20 06:35:29;;;;;;;1.17;0.70;;;8.80;99.90;;;;;;4993100;28;20682;-72
2023/03/20 06:37:55;;;;;;;0.77;0.77;;;8.90;99.90;;;;;;4992980;28;20209;-72
2023/03/20 06:40:21;;;;;;;2.03;0.80;;;9.00;99.90;;;;;;4991143;28;20445;-70
2023/03/20 06:42:46;;;;;;;1.07;0.87;;;9.00;99.90;;;;;;4992928;28;20185;-70
2023/03/20 06:45:12;;;;;;;0.77;0.77;;;9.10;99.90;;;;;;4993002;28;20438;-71
2023/03/20 06:47:38;;;;;;;1.10;1.00;;;9.20;99.90;;;;;;4993006;28;20376;-70
2023/03/20 06:50:04;;;;;;;1.17;0.80;;;9.30;99.90;;;;;;4992990;28;20215;-71
2023/03/20 06:52:29;;;;;;;1.00;0.90;;;9.40;99.90;;;;;;4992647;28;20293;-70
2023/03/20 06:54:55;;;;;;;4.03;0.90;;;9.50;99.90;;;;;;4992520;28;20827;-71
2023/03/20 06:57:21;;;;;;;1.20;1.10;;;9.60;99.90;;;;;;4991734;28;20274;-72
2023/03/20 06:59:46;;;;;;;0.87;0.87;;;9.70;99.90;;;;;;4992357;28;20513;-71
2023/03/20 07:02:12;;;;;;;1.17;0.93;;;9.80;99.90;;;;;;4992184;28;20560;-70
2023/03/20 07:04:38;;;;;;;1.17;1.10;;;9.90;99.90;;;;;;4992348;28;20191;-70
2023/03/20 07:07:04;;;;;;;1.90;1.20;;;10.10;99.90;;;;;;4992211;28;20184;-71
2023/03/20 07:09:29;;;;;;;0.90;0.90;;;10.10;99.90;;;;;;4992436;28;20932;-71
2023/03/20 07:11:55;;;;;;;2.67;1.30;;;10.30;99.90;;;;;;4991974;28;20234;-71
2023/03/20 07:14:21;;;;;;;1.37;1.00;;;10.40;99.90;;;;;;4990873;28;20710;-70
2023/03/20 07:16:47;;;;;;;1.80;0.90;;;10.60;99.90;;;;;;4992049;28;20190;-70
2023/03/20 07:19:13;;;;;;;1.43;0.80;;;10.70;99.90;;;;;;4992007;28;20802;-71
2023/03/20 07:21:38;;;;;;;1.43;1.00;;;10.80;99.90;;;;;;4991655;28;20447;-70
2023/03/20 07:24:06;;;;;;;1.00;1.00;;;10.80;99.90;;;;;;4991451;28;20616;-70
2023/03/20 07:26:31;;;;;;;1.33;1.23;;;10.90;99.90;;;;;;4992115;28;20475;-71
2023/03/20 07:28:57;;;;;;;1.33;1.23;;;10.80;99.90;;;;;;4991604;28;20882;-70
2023/03/20 07:31:25;;;;;;;2.63;1.40;;;10.70;99.90;;;;;;4991362;28;20591;-71
2023/03/20 07:33:51;;;;;;;1.20;1.10;;;10.60;99.90;;;;;;4991093;28;20210;-72
2023/03/20 07:36:17;;;;;;;3.53;1.27;;;10.40;99.90;;;;;;4992011;28;20434;-72
2023/03/20 07:38:42;;;;;;;1.43;1.23;;;10.40;99.90;;;;;;4991448;28;20191;-71
2023/03/20 07:41:08;;;;;;;5.13;1.50;;;10.50;99.90;;;;;;4991839;28;20211;-71
2023/03/20 07:43:33;;;;;;;1.53;1.13;;;10.60;99.90;;;;;;4991586;28;20217;-72
2023/03/20 07:46:04;;;;;;;1.90;1.40;;;10.80;99.90;;;;;;4993027;28;20197;-72
2023/03/20 07:48:30;;;;;;;2.27;1.30;;;10.90;99.90;;;;;;4987599;28;20282;-72
2023/03/20 07:50:55;;;;;;;1.53;1.43;;;11.10;99.90;;;;;;4991297;28;21026;-72
2023/03/20 07:53:21;;;;;;;1.33;0.73;;;11.20;99.90;;;;;;4991084;28;20373;-70
2023/03/20 07:55:46;;;;;;;1.43;0.97;;;11.30;99.90;;;;;;4991224;28;20192;-71
2023/03/20 07:58:12;;;;;;;2.60;0.97;;;11.30;99.90;;;;;;4991710;28;20561;-72
2023/03/20 08:00:37;;;;;;;1.23;0.93;;;11.40;99.90;;;;;;4991608;28;20203;-69
2023/03/20 08:03:03;;;;;;;2.27;0.93;;;11.50;99.90;;;;;;4989210;28;20265;-71
2023/03/20 08:05:29;;;;;;;0.90;0.90;;;11.60;99.90;;;;;;4991600;28;20266;-72
2023/03/20 08:07:54;;;;;;;0.70;0.70;;;11.60;99.90;;;;;;4991175;28;20253;-71
2023/03/20 08:10:20;;;;;;;1.10;0.97;;;11.70;99.90;;;;;;4991143;28;20186;-70
2023/03/20 08:12:46;;;;;;;1.10;1.10;;;11.70;99.90;;;;;;4990250;28;20314;-71
2023/03/20 08:15:12;;;;;;;0.90;0.90;;;11.70;99.90;;;;;;4991579;28;20234;-72
2023/03/20 08:17:40;;;;;;;1.30;1.20;;;11.60;99.90;;;;;;4991127;28;20190;-72
2023/03/20 08:20:06;;;;;;;0.90;0.90;;;11.60;99.90;;;;;;4987944;28;20225;-72
2023/03/20 08:22:31;;;;;;;1.90;0.93;;;11.50;99.90;;;;;;4990947;28;20455;-70
2023/03/20 08:24:57;;;;;;;2.30;1.00;;;11.40;99.90;;;;;;4990723;28;20461;-70
2023/03/20 08:27:23;;;;;;;1.50;1.40;;;11.30;99.90;;;;;;4999019;28;20552;-69
2023/03/20 08:29:49;;;;;;;1.60;1.17;;;11.40;99.90;;;;;;4997522;28;20674;-69
2023/03/20 08:32:15;;;;;;;0.77;0.77;;;11.50;99.90;;;;;;5002542;28;20461;-70
2023/03/20 08:34:41;;;;;;;2.17;1.00;;;11.50;99.90;;;;;;4998654;28;20206;-68
2023/03/20 08:37:06;;;;;;;0.97;0.90;;;11.70;99.90;;;;;;4997396;28;20586;-69
2023/03/20 08:39:32;;;;;;;2.33;1.03;;;11.80;99.90;;;;;;4995331;28;20187;-70
2023/03/20 08:41:58;;;;;;;1.00;1.00;;;11.80;99.90;;;;;;4990889;28;20207;-70
2023/03/20 08:44:23;;;;;;;2.40;1.00;;;11.90;99.90;;;;;;4991221;28;20564;-70
2023/03/20 08:46:49;;;;;;;2.60;1.20;;;12.00;99.90;;;;;;4994489;28;20191;-70
2023/03/20 08:49:14;;;;;;;3.00;1.50;;;12.00;99.90;;;;;;4993511;28;20189;-70
2023/03/20 08:51:41;;;;;;;0.90;0.90;;;12.00;99.90;;;;;;5000209;28;20684;-68
2023/03/20 08:54:07;;;;;;;1.40;1.30;;;12.20;99.90;;;;;;4991354;28;20204;-70
2023/03/20 08:56:32;;;;;;;1.20;1.20;;;12.30;99.90;;;;;;4990226;28;20518;-69
2023/03/20 08:58:58;;;;;;;1.10;1.10;;;12.40;99.90;;;;;;4992154;28;20199;-69
2023/03/20 09:01:23;;;;;;;1.00;0.90;;;12.70;99.90;;;;;;4991291;28;20246;-69
2023/03/20 09:03:49;;;;;;;1.30;1.20;;;13.00;99.90;;;;;;4991631;28;20249;-70
2023/03/20 09:06:14;;;;;;;1.17;0.97;;;13.30;99.90;;;;;;4994010;28;20570;-71
2023/03/20 09:08:40;;;;;;;1.07;1.07;;;13.80;99.90;;;;;;4994537;28;20195;-71
2023/03/20 09:11:06;;;;;;;0.90;0.90;;;14.10;99.90;;;;;;4990620;28;20218;-72
2023/03/20 09:13:32;;;;;;;1.00;1.00;;;14.40;99.90;;;;;;4991103;28;20213;-71
2023/03/20 09:15:58;;;;;;;1.40;1.13;;;14.80;99.90;;;;;;4990751;28;20810;-71
2023/03/20 09:18:24;;;;;;;1.40;1.30;;;14.70;99.90;;;;;;4991068;28;20679;-72
2023/03/20 09:20:50;;;;;;;1.07;1.07;;;14.60;99.90;;;;;;4993819;28;20418;-71
2023/03/20 09:23:16;;;;;;;2.03;1.10;;;14.40;99.90;;;;;;4994202;28;20520;-72
2023/03/20 09:25:42;;;;;;;4.50;1.00;;;14.20;99.90;;;;;;4994450;28;20290;-72
2023/03/20 09:28:07;;;;;;;0.90;0.90;;;14.10;99.90;;;;;;4986394;28;20508;-70
2023/03/20 09:30:33;;;;;;;1.63;1.10;;;14.10;99.90;;;;;;4993574;28;20242;-72
2023/03/20 09:32:58;;;;;;;1.00;1.00;;;14.50;99.90;;;;;;4993610;28;20226;-71
2023/03/20 09:35:24;;;;;;;1.87;1.00;;;14.60;99.90;;;;;;4994244;28;20184;-72
2023/03/20 09:37:50;;;;;;;1.00;1.00;;;14.90;99.90;;;;;;4993676;28;20191;-70
2023/03/20 09:40:45;;;;;;;1.30;1.13;;;15.20;99.90;;;;;;4993422;28;20448;-71
2023/03/20 09:43:16;;;;;;;1.30;1.00;;;15.10;99.90;;;;;;4985990;28;20219;-72
2023/03/20 09:46:03;;;;;;;1.00;0.90;;;14.90;99.90;;;;;;4994043;28;20466;-72
2023/03/20 09:48:40;;;;;;;1.00;0.80;;;14.70;99.90;;;;;;4994092;28;20425;-72
2023/03/20 09:51:30;;;;;;;0.80;0.80;;;14.60;99.90;;;;;;4993399;28;20438;-72
2023/03/20 09:54:01;;;;;;;1.43;1.00;;;14.60;99.90;;;;;;4991709;28;20474;-72
2023/03/20 09:56:29;;;;;;;1.93;0.77;;;14.50;99.90;;;;;;4993966;28;20538;-71
2023/03/20 09:59:01;;;;;;;1.13;0.70;;;14.50;99.90;;;;;;4993477;28;21137;-72
2023/03/20 10:01:44;;;;;;;0.70;0.70;;;14.40;99.90;;;;;;4993718;28;20450;-73
2023/03/20 10:04:10;;;;;;;1.47;0.80;;;14.30;99.90;;;;;;4985528;28;20431;-72
2023/03/20 10:06:36;;;;;;;2.23;0.90;;;14.30;99.90;;;;;;4993694;28;20982;-73
2023/03/20 10:09:13;;;;;;;0.90;0.90;;;14.10;99.90;;;;;;4993246;28;20438;-72
2023/03/20 10:11:54;;;;;;;1.07;1.00;;;14.00;99.90;;;;;;4993437;28;20442;-73
2023/03/20 10:14:40;;;;;;;0.80;0.80;;;13.80;99.90;;;;;;4993289;28;21007;-71
2023/03/20 10:17:35;;;;;;;0.83;0.83;;;13.50;99.90;;;;;;4992817;28;20550;-72
2023/03/20 10:20:15;;;;;;;0.80;0.80;;;13.40;99.90;;;;;;4993082;28;20928;-71
2023/03/20 10:22:54;;;;;;;1.10;1.00;;;13.50;99.90;;;;;;4992783;28;20449;-72
2023/03/20 10:25:26;;;;;;;0.90;0.90;;;13.50;99.90;;;;;;4993361;28;20924;-71
2023/03/20 10:28:10;;;;;;;1.73;1.63;;;13.40;99.90;;;;;;4993098;28;20429;-71
2023/03/20 10:30:54;;;;;;;2.20;1.63;;;13.20;99.90;;;;;;4993031;28;20842;-72
2023/03/20 10:33:31;;;;;;;1.93;1.83;;;12.90;99.90;;;;;;4985800;28;20485;-72
2023/03/20 10:36:24;;;;;;;4.83;1.77;;;12.90;99.90;;;;;;4992732;28;20451;-72
2023/03/20 10:39:08;;;;;;;2.10;1.83;;;12.80;99.90;;;;;;4992617;28;20767;-71
2023/03/20 10:41:37;;;;;;;1.97;1.43;;;12.80;99.90;;;;;;4993001;28;20450;-72
2023/03/20 10:44:03;;;;;;;2.40;2.20;;;12.60;99.90;;;;;;4992386;28;20431;-70
2023/03/20 10:46:31;;;;;;;3.00;1.80;;;12.60;99.90;;;;;;4993276;28;20437;-72
2023/03/20 10:49:09;;;;;;;1.97;1.87;;;12.70;99.90;;;;;;4992573;28;20462;-71
2023/03/20 10:51:48;;;;;;;2.23;2.10;;;12.70;99.90;;;;;;4992846;28;20507;-71
2023/03/20 10:54:28;;;;;;;3.13;2.40;;;12.70;99.90;;;;;;4984587;28;20474;-70
2023/03/20 10:56:57;;;;;;;3.10;2.87;;;12.70;99.90;;;;;;4992363;28;20438;-69
2023/03/20 10:59:39;;;;;;;4.80;3.87;;;12.80;99.90;;;;;;4992486;28;20485;-70
2023/03/20 11:02:13;;;;;;;8.70;4.57;;;12.80;99.90;;;;;;4992140;28;20547;-72
2023/03/20 11:04:38;;;;;;;4.90;4.50;;;13.00;99.90;;;;;;4992598;28;20521;-70
2023/03/20 11:07:24;;;;;;;5.60;4.90;;;13.00;99.90;;;;;;4992023;28;20521;-69
2023/03/20 11:10:12;;;;;;;5.73;4.63;;;13.10;99.90;;;;;;4992159;28;20683;-70
2023/03/20 11:12:40;;;;;;;5.73;5.07;;;13.10;99.90;;;;;;4992010;28;20445;-71
2023/03/20 11:15:24;;;;;;;7.30;4.50;;;13.20;99.90;;;;;;4992098;28;20549;-70
2023/03/20 11:17:53;;;;;;;5.10;4.60;;;13.30;99.90;;;;;;4991896;28;20434;-69
2023/03/20 11:20:19;;;;;;;6.67;5.23;;;13.30;99.90;;;;;;4992302;28;20529;-70
2023/03/20 11:22:47;;;;;;;4.60;4.20;;;13.30;99.90;;;;;;4991564;28;20518;-71
2023/03/20 11:25:28;;;;;;;4.33;3.93;;;13.20;99.90;;;;;;4991750;28;20179;-70
2023/03/20 11:27:54;;;;;;;4.73;4.20;;;13.20;99.90;;;;;;4990027;28;20426;-70
2023/03/20 11:30:20;;;;;;;4.60;4.20;;;13.10;99.90;;;;;;4991813;28;20538;-72
2023/03/20 11:32:48;;;;;;;4.70;4.30;;;13.10;99.90;;;;;;4991548;28;20466;-71
2023/03/20 11:35:17;;;;;;;5.73;4.50;;;13.40;99.90;;;;;;4991684;28;20215;-71
2023/03/20 11:37:44;;;;;;;7.07;5.30;;;13.40;99.90;;;;;;4991712;28;20481;-71
2023/03/20 11:40:13;;;;;;;5.10;4.60;;;13.60;99.90;;;;;;4991770;28;20434;-72
2023/03/20 11:43:10;;;;;;;6.57;5.10;;;13.60;99.90;;;;;;4991475;28;20453;-72
2023/03/20 11:45:46;;;;;;;5.43;4.87;;;13.70;99.90;;;;;;4986485;28;20851;-71
2023/03/20 11:48:24;;;;;;;6.90;4.60;;;13.60;99.90;;;;;;4991550;28;20418;-73
2023/03/20 11:51:00;;;;;;;7.33;5.00;;;13.70;99.90;;;;;;4991585;28;20454;-73
2023/03/20 11:53:28;;;;;;;5.90;5.30;;;13.70;99.90;;;;;;4985279;28;20986;-72
2023/03/20 11:56:00;;;;;;;5.40;4.70;;;13.70;99.90;;;;;;4991817;28;21108;-70
2023/03/20 11:58:28;;;;;;;6.20;4.53;;;13.60;99.90;;;;;;4991578;28;20529;-72
2023/03/20 12:00:55;;;;;;;6.33;5.00;;;13.80;99.90;;;;;;4991308;28;20828;-71
2023/03/20 12:03:40;;;;;;;7.57;5.47;;;14.20;99.90;;;;;;4991356;28;20929;-72
2023/03/20 12:06:11;;;;;;;6.00;5.40;;;14.40;99.90;;;;;;4991405;28;20438;-72
2023/03/20 12:08:40;;;;;;;4.97;4.33;;;14.60;99.90;;;;;;4991561;28;20427;-72
2023/03/20 12:11:21;;;;;;;5.70;4.77;;;14.60;99.90;;;;;;4991168;28;20450;-71
2023/03/20 12:13:50;;;;;;;4.00;3.30;;;14.60;99.90;;;;;;4990939;28;20490;-70
2023/03/20 12:16:20;;;;;;;4.67;3.83;;;14.60;99.90;;;;;;4991277;28;20426;-69
2023/03/20 12:18:50;;;;;;;4.43;3.97;;;14.40;99.90;;;;;;4991619;28;20553;-71
2023/03/20 12:21:43;;;;;;;6.97;5.90;;;14.30;99.90;;;;;;4991226;28;20574;-71
2023/03/20 12:24:35;;;;;;;3.77;3.47;;;14.30;99.90;;;;;;4990891;28;20430;-70
2023/03/20 12:27:22;;;;;;;6.07;4.90;;;14.40;99.90;;;;;;4991138;28;20426;-71
2023/03/20 12:30:05;;;;;;;9.40;4.70;;;14.50;99.90;;;;;;4991229;28;20850;-71
2023/03/20 12:32:52;;;;;;;4.50;4.10;;;14.60;99.90;;;;;;4990976;28;20520;-71
2023/03/20 12:35:35;;;;;;;4.80;4.40;;;14.70;99.90;;;;;;4983338;28;21129;-69
2023/03/20 12:38:00;;;;;;;7.50;4.30;;;14.70;99.90;;;;;;4990887;28;20573;-72
2023/03/20 12:40:39;;;;;;;5.70;4.40;;;14.80;99.90;;;;;;4991216;28;20983;-70
2023/03/20 12:43:15;;;;;;;4.40;3.73;;;14.70;99.90;;;;;;4990788;28;20261;-72
2023/03/20 12:45:49;;;;;;;5.33;4.83;;;14.60;99.90;;;;;;4991621;28;20513;-70
2023/03/20 12:48:43;;;;;;;8.63;5.00;;;14.50;99.90;;;;;;4991163;28;20426;-71
2023/03/20 12:51:27;;;;;;;4.50;4.10;;;14.40;99.90;;;;;;4991074;28;20450;-71
2023/03/20 12:54:15;;;;;;;4.80;3.93;;;14.40;99.90;;;;;;4990904;28;20843;-70
2023/03/20 12:57:05;;;;;;;3.80;3.50;;;14.20;99.90;;;;;;4993619;28;20953;-71
2023/03/20 12:59:56;;;;;;;4.73;3.67;;;14.30;99.90;;;;;;4988510;28;20426;-70
2023/03/20 13:02:46;;;;;;;3.80;3.50;;;14.30;99.90;;;;;;4994804;28;20452;-71
2023/03/20 13:05:15;;;;;;;4.73;4.10;;;14.40;99.90;;;;;;4993875;28;20422;-71
2023/03/20 13:07:54;;;;;;;3.20;2.97;;;14.40;99.90;;;;;;4994915;28;20805;-71
2023/03/20 13:10:28;;;;;;;3.33;3.00;;;14.50;99.90;;;;;;4993657;28;20832;-72
2023/03/20 13:13:00;;;;;;;4.60;3.30;;;14.80;99.90;;;;;;4994985;28;20477;-71
2023/03/20 13:16:26;;;;;;;5.27;3.57;;;14.90;99.90;;;;;;4987904;28;20852;-71
2023/03/20 13:19:08;;;;;;;4.00;3.60;;;14.80;99.90;;;;;;4953279;28;20440;-71
2023/03/20 13:21:55;;;;;;;3.50;3.20;;;14.80;99.90;;;;;;4961655;28;20491;-71
2023/03/20 13:24:40;;;;;;;4.63;3.07;;;14.60;99.90;;;;;;4988405;28;20541;-70
2023/03/20 13:27:47;;;;;;;3.70;3.30;;;14.70;99.90;;;;;;4994303;28;20801;-71
2023/03/20 13:30:33;;;;;;;6.50;5.87;;;14.80;99.90;;;;;;4942222;28;20896;-71
2023/03/20 13:33:19;;;;;;;3.83;3.23;;;14.90;99.90;;;;;;4993725;28;20456;-70
2023/03/20 13:36:18;;;;;;;4.07;3.00;;;14.70;99.90;;;;;;4994553;28;20430;-70
2023/03/20 13:38:53;;;;;;;3.43;2.23;;;14.50;99.90;;;;;;4994058;28;20513;-71
2023/03/20 13:41:19;;;;;;;3.47;3.07;;;14.50;99.90;;;;;;4994005;28;20434;-70
2023/03/20 13:43:53;;;;;;;2.97;2.67;;;14.60;99.90;;;;;;4993614;28;20521;-71
2023/03/20 13:46:27;;;;;;;3.00;2.70;;;14.60;99.90;;;;;;4993851;28;20430;-70
2023/03/20 13:48:57;;;;;;;2.30;2.20;;;14.60;99.90;;;;;;4993907;28;20445;-71
2023/03/20 13:51:53;;;;;;;2.57;2.37;;;14.50;99.90;;;;;;4986118;28;20446;-71
2023/03/20 13:54:50;;;;;;;2.30;2.10;;;14.40;99.90;;;;;;4993305;28;20473;-72
2023/03/20 13:57:42;;;;;;;2.50;2.30;;;14.30;99.90;;;;;;4993818;28;20525;-70
2023/03/20 14:00:34;;;;;;;2.50;2.30;;;14.30;99.90;;;;;;4992396;28;20445;-71
2023/03/20 14:03:27;;;;;;;2.63;2.43;;;14.30;99.90;;;;;;4992975;28;20433;-70
2023/03/20 14:05:53;;;;;;;5.50;3.27;;;14.20;99.90;;;;;;4993655;28;20447;-71
2023/03/20 14:08:31;;;;;;;2.50;2.30;;;14.20;99.90;;;;;;4993478;28;20920;-71
2023/03/20 14:11:11;;;;;;;3.27;1.97;;;14.20;99.90;;;;;;4993426;28;20445;-70
2023/03/20 14:13:38;;;;;;;3.17;2.87;;;14.10;99.90;;;;;;4993343;28;20854;-73
2023/03/20 14:16:08;;;;;;;2.60;1.90;;;14.00;99.90;;;;;;4993416;28;20564;-70
2023/03/20 14:18:35;;;;;;;3.57;3.03;;;13.90;99.90;;;;;;4993657;28;20423;-72
2023/03/20 14:21:08;;;;;;;3.53;2.30;;;13.90;99.90;;;;;;4993407;28;20454;-70
2023/03/20 14:23:56;;;;;;;3.67;2.73;;;13.90;99.90;;;;;;4993259;28;20441;-70
2023/03/20 14:26:41;;;;;;;2.67;2.40;;;14.00;99.90;;;;;;4993430;28;20489;-71
2023/03/20 14:29:10;;;;;;;3.80;2.07;;;14.00;99.90;;;;;;4993063;28;20434;-71
2023/03/20 14:31:37;;;;;;;1.83;1.73;;;14.00;99.90;;;;;;4993540;28;20471;-70
2023/03/20 14:34:11;;;;;;;4.57;2.43;;;14.00;99.90;;;;;;4992490;28;20612;-70
2023/03/20 14:36:50;;;;;;;2.67;2.47;;;14.00;99.90;;;;;;4993114;28;20419;-71
2023/03/20 14:39:37;;;;;;;1.97;1.87;;;14.10;99.90;;;;;;4991502;28;20418;-72
2023/03/20 14:42:18;;;;;;;3.20;2.40;;;14.10;99.90;;;;;;4992676;28;20505;-71
2023/03/20 14:44:49;;;;;;;2.30;2.10;;;14.00;99.90;;;;;;4991637;28;20446;-72